createdAt,value
2023-02-20T00:00:20.202Z,61.61
2023-02-20T00:00:52.386Z,61.24
2023-02-20T00:01:28.977Z,61.52
2023-02-20T00:02:01.097Z,61.53
2023-02-20T00:02:33.223Z,61.30
2023-02-20T00:03:09.239Z,61.08
2023-02-20T00:03:41.332Z,61.01
2023-02-20T00:04:13.490Z,60.73
2023-02-20T00:04:50.175Z,60.60
2023-02-20T00:05:22.757Z,60.74
2023-02-20T00:05:54.985Z,60.89
2023-02-20T00:06:29.782Z,61.05
2023-02-20T00:07:01.940Z,60.85
2023-02-20T00:07:34.025Z,61.03
2023-02-20T00:08:08.975Z,60.98
2023-02-20T00:08:41.360Z,60.86
2023-02-20T00:09:14.007Z,60.89
2023-02-20T00:09:48.740Z,60.99
2023-02-20T00:10:24.397Z,60.60
2023-02-20T00:10:56.484Z,61.00
2023-02-20T00:11:31.294Z,60.82
2023-02-20T00:12:03.401Z,60.68
2023-02-20T00:12:35.724Z,61.03
2023-02-20T00:13:10.584Z,60.89
2023-02-20T00:13:46.395Z,61.02
2023-02-20T00:14:18.525Z,60.98
2023-02-20T00:14:53.221Z,60.97
2023-02-20T00:15:25.434Z,60.82
2023-02-20T00:15:57.654Z,60.94
2023-02-20T00:16:32.480Z,60.94
2023-02-20T00:17:04.551Z,60.85
2023-02-20T00:17:36.661Z,60.58
2023-02-20T00:18:11.433Z,60.30
2023-02-20T00:18:44.423Z,60.05
2023-02-20T00:19:16.980Z,60.30
2023-02-20T00:19:51.671Z,60.10
2023-02-20T00:20:25.493Z,60.16
2023-02-20T00:20:57.660Z,60.34
2023-02-20T00:21:32.415Z,60.49
2023-02-20T00:22:04.482Z,60.46
2023-02-20T00:22:36.537Z,60.36
2023-02-20T00:23:11.193Z,60.55
2023-02-20T00:23:43.427Z,60.64
2023-02-20T00:24:16.158Z,60.63
2023-02-20T00:24:51.213Z,60.52
2023-02-20T00:25:25.891Z,60.53
2023-02-20T00:25:58.045Z,60.61
2023-02-20T00:26:32.966Z,60.44
2023-02-20T00:27:05.402Z,60.24
2023-02-20T00:27:37.762Z,60.14
2023-02-20T00:28:12.488Z,60.40
2023-02-20T00:28:44.988Z,60.47
2023-02-20T00:29:18.638Z,60.50
2023-02-20T00:29:54.657Z,60.12
2023-02-20T00:30:26.879Z,60.54
2023-02-20T00:30:59.075Z,60.09
2023-02-20T00:31:33.813Z,60.06
2023-02-20T00:32:08.635Z,60.20
2023-02-20T00:32:40.801Z,60.27
2023-02-20T00:33:15.486Z,60.10
2023-02-20T00:33:47.588Z,60.16
2023-02-20T00:34:21.821Z,60.29
2023-02-20T00:34:56.695Z,60.43
2023-02-20T00:35:28.925Z,60.29
2023-02-20T00:36:01.099Z,60.43
2023-02-20T00:36:35.762Z,60.06
2023-02-20T00:37:08.784Z,60.09
2023-02-20T00:37:41.003Z,60.03
2023-02-20T00:38:16.754Z,60.24
2023-02-20T00:38:48.860Z,60.52
2023-02-20T00:39:21.122Z,60.29
2023-02-20T00:39:55.901Z,60.37
2023-02-20T00:40:30.646Z,60.52
2023-02-20T00:41:02.822Z,59.97
2023-02-20T00:41:37.481Z,60.17
2023-02-20T00:42:09.953Z,60.25
2023-02-20T00:42:46.680Z,60.30
2023-02-20T00:43:18.868Z,59.99
2023-02-20T00:43:50.938Z,60.00
2023-02-20T00:44:25.670Z,60.47
2023-02-20T00:44:58.906Z,60.16
2023-02-20T00:45:31.013Z,60.56
2023-02-20T00:46:05.770Z,60.49
2023-02-20T00:46:37.990Z,60.20
2023-02-20T00:47:10.640Z,60.19
2023-02-20T00:47:45.304Z,60.25
2023-02-20T00:48:17.482Z,60.64
2023-02-20T00:48:51.018Z,60.50
2023-02-20T00:49:44.057Z,60.43
2023-02-20T00:50:19.648Z,60.29
2023-02-20T00:50:51.726Z,60.47
2023-02-20T00:51:26.542Z,60.19
2023-02-20T00:51:58.661Z,60.02
2023-02-20T00:52:33.669Z,60.38
2023-02-20T00:53:05.793Z,60.37
2023-02-20T00:53:37.870Z,60.47
2023-02-20T00:54:09.999Z,60.31
2023-02-20T00:54:44.943Z,60.23
2023-02-20T00:55:17.644Z,60.38
2023-02-20T00:55:53.679Z,60.18
2023-02-20T00:56:28.383Z,59.42
2023-02-20T00:57:02.099Z,59.43
2023-02-20T00:57:34.256Z,59.56
2023-02-20T00:58:08.894Z,59.70
2023-02-20T00:58:41.127Z,59.82
2023-02-20T00:59:13.358Z,60.01
2023-02-20T00:59:49.019Z,59.62
2023-02-20T01:00:25.765Z,59.49
2023-02-20T01:00:57.841Z,59.49
2023-02-20T01:01:30.521Z,59.59
2023-02-20T01:02:05.270Z,59.94
2023-02-20T01:02:37.418Z,59.88
2023-02-20T01:03:09.522Z,59.87
2023-02-20T01:03:45.615Z,59.88
2023-02-20T01:04:17.722Z,59.40
2023-02-20T01:04:49.872Z,59.45
2023-02-20T01:05:22.267Z,59.22
2023-02-20T01:05:56.916Z,59.79
2023-02-20T01:06:29.044Z,59.73
2023-02-20T01:07:01.167Z,59.47
2023-02-20T01:07:35.947Z,59.85
2023-02-20T01:08:08.286Z,59.54
2023-02-20T01:08:41.708Z,59.50
2023-02-20T01:09:16.634Z,59.62
2023-02-20T01:09:48.796Z,59.64
2023-02-20T01:10:21.206Z,59.56
2023-02-20T01:10:58.575Z,59.29
2023-02-20T01:11:31.955Z,59.88
2023-02-20T01:12:05.169Z,59.75
2023-02-20T01:12:39.903Z,59.90
2023-02-20T01:13:12.251Z,59.73
2023-02-20T01:13:44.433Z,60.00
2023-02-20T01:14:21.035Z,59.87
2023-02-20T01:14:53.115Z,59.82
2023-02-20T01:15:25.297Z,59.89
2023-02-20T01:16:00.032Z,60.01
2023-02-20T01:16:32.291Z,59.82
2023-02-20T01:17:04.580Z,59.74
2023-02-20T01:17:39.456Z,60.22
2023-02-20T01:18:11.565Z,60.09
2023-02-20T01:18:43.699Z,60.05
2023-02-20T01:19:18.465Z,60.03
2023-02-20T01:19:51.185Z,60.33
2023-02-20T01:20:25.629Z,60.32
2023-02-20T01:21:02.702Z,60.22
2023-02-20T01:21:34.799Z,60.01
2023-02-20T01:22:08.955Z,59.88
2023-02-20T01:22:44.240Z,59.82
2023-02-20T01:23:16.664Z,60.09
2023-02-20T01:23:48.756Z,59.87
2023-02-20T01:24:20.999Z,59.82
2023-02-20T01:24:55.788Z,60.12
2023-02-20T01:25:27.966Z,59.98
2023-02-20T01:26:02.643Z,60.40
2023-02-20T01:26:37.306Z,60.24
2023-02-20T01:27:10.248Z,60.53
2023-02-20T01:27:42.453Z,60.32
2023-02-20T01:28:17.204Z,60.41
2023-02-20T01:28:50.046Z,60.28
2023-02-20T01:29:22.117Z,60.22
2023-02-20T01:29:56.779Z,60.06
2023-02-20T01:30:29.243Z,60.52
2023-02-20T01:31:01.415Z,60.40
2023-02-20T01:31:36.191Z,60.18
2023-02-20T01:32:11.197Z,60.55
2023-02-20T01:32:43.861Z,60.41
2023-02-20T01:33:16.118Z,60.19
2023-02-20T01:33:50.831Z,60.54
2023-02-20T01:34:23.034Z,60.47
2023-02-20T01:34:55.163Z,60.57
2023-02-20T01:35:32.165Z,60.40
2023-02-20T01:36:06.699Z,60.41
2023-02-20T01:36:38.834Z,60.43
2023-02-20T01:37:16.547Z,60.32
2023-02-20T01:37:48.612Z,60.30
2023-02-20T01:38:23.414Z,60.19
2023-02-20T01:38:55.987Z,60.44
2023-02-20T01:39:31.121Z,60.47
2023-02-20T01:40:07.018Z,60.48
2023-02-20T01:40:39.137Z,60.98
2023-02-20T01:41:14.088Z,60.57
2023-02-20T01:41:51.047Z,60.59
2023-02-20T01:42:25.858Z,60.26
2023-02-20T01:43:00.971Z,60.47
2023-02-20T01:43:35.644Z,60.50
2023-02-20T01:44:18.096Z,60.11
2023-02-20T01:44:50.804Z,60.61
2023-02-20T01:45:36.733Z,60.29
2023-02-20T01:46:47.713Z,60.16
2023-02-20T01:47:23.021Z,60.75
2023-02-20T01:47:57.028Z,60.54
2023-02-20T01:48:29.117Z,60.60
2023-02-20T01:49:04.783Z,60.62
2023-02-20T01:49:44.406Z,60.42
2023-02-20T01:50:18.729Z,60.72
2023-02-20T01:50:57.458Z,60.53
2023-02-20T01:51:35.408Z,60.20
2023-02-20T01:52:14.089Z,60.34
2023-02-20T01:52:53.710Z,60.63
2023-02-20T01:53:28.842Z,60.56
2023-02-20T01:54:01.104Z,60.51
2023-02-20T01:54:39.011Z,60.36
2023-02-20T01:55:14.500Z,60.39
2023-02-20T01:55:51.225Z,60.42
2023-02-20T01:56:29.285Z,60.73
2023-02-20T01:57:04.571Z,60.48
2023-02-20T01:57:41.574Z,60.34
2023-02-20T01:58:20.707Z,60.47
2023-02-20T01:58:53.071Z,60.57
2023-02-20T01:59:27.416Z,60.47
2023-02-20T02:00:06.223Z,60.21
2023-02-20T02:00:46.807Z,60.43
2023-02-20T02:01:19.165Z,60.69
2023-02-20T02:01:52.714Z,60.64
2023-02-20T02:02:31.383Z,60.23
2023-02-20T02:03:09.416Z,60.64
2023-02-20T02:03:48.179Z,60.64
2023-02-20T02:04:21.230Z,60.48
2023-02-20T02:04:54.282Z,60.51
2023-02-20T02:05:33.280Z,60.86
2023-02-20T02:06:08.174Z,60.63
2023-02-20T02:06:44.212Z,60.44
2023-02-20T02:07:19.210Z,60.58
2023-02-20T02:07:51.961Z,60.53
2023-02-20T02:08:25.384Z,60.51
2023-02-20T02:09:01.475Z,60.89
2023-02-20T02:09:42.575Z,60.86
2023-02-20T02:10:18.712Z,60.59
2023-02-20T02:10:56.591Z,60.92
2023-02-20T02:11:36.187Z,61.04
2023-02-20T02:12:08.929Z,61.21
2023-02-20T02:12:48.786Z,60.78
2023-02-20T02:13:21.281Z,61.14
2023-02-20T02:13:53.684Z,61.23
2023-02-20T02:14:31.959Z,61.21
2023-02-20T02:15:12.987Z,60.74
2023-02-20T02:15:45.350Z,60.68
2023-02-20T02:16:27.454Z,61.14
2023-02-20T02:17:21.654Z,61.12
2023-02-20T02:18:17.352Z,61.31
2023-02-20T02:18:55.419Z,61.04
2023-02-20T02:19:51.314Z,61.29
2023-02-20T02:21:02.095Z,60.86
2023-02-20T02:22:14.512Z,61.28
2023-02-20T02:23:31.925Z,61.18
2023-02-20T02:24:39.296Z,61.37
2023-02-20T02:25:36.682Z,61.36
2023-02-20T02:26:29.842Z,61.52
2023-02-20T02:27:32.796Z,61.25
2023-02-20T02:28:46.464Z,61.76
2023-02-20T02:30:00.924Z,61.74
2023-02-20T02:31:14.722Z,61.64
2023-02-20T02:32:15.774Z,61.69
2023-02-20T02:33:21.445Z,61.29
2023-02-20T02:34:40.638Z,61.68
2023-02-20T02:35:33.047Z,61.46
2023-02-20T02:36:28.267Z,61.70
2023-02-20T02:37:16.808Z,61.69
2023-02-20T02:37:58.404Z,61.47
2023-02-20T02:38:39.317Z,61.21
2023-02-20T02:39:20.863Z,61.76
2023-02-20T02:40:05.338Z,61.25
2023-02-20T02:40:43.372Z,61.69
2023-02-20T02:41:25.597Z,61.48
2023-02-20T02:42:04.591Z,61.70
2023-02-20T02:42:45.491Z,61.53
2023-02-20T02:43:26.752Z,61.60
2023-02-20T02:44:05.152Z,61.52
2023-02-20T02:44:44.242Z,61.48
2023-02-20T02:45:23.782Z,61.70
2023-02-20T02:46:01.689Z,61.24
2023-02-20T02:46:42.616Z,61.55
2023-02-20T02:47:24.960Z,61.42
2023-02-20T02:48:04.832Z,61.50
2023-02-20T02:48:40.376Z,61.52
2023-02-20T02:49:20.423Z,61.11
2023-02-20T02:49:58.430Z,61.47
2023-02-20T02:50:36.747Z,61.32
2023-02-20T02:51:18.093Z,61.33
2023-02-20T02:51:56.093Z,61.30
2023-02-20T02:52:38.931Z,61.07
2023-02-20T02:53:15.688Z,61.47
2023-02-20T02:54:05.526Z,60.98
2023-02-20T02:54:38.714Z,61.11
2023-02-20T02:55:11.396Z,61.36
2023-02-20T02:55:46.304Z,61.64
2023-02-20T02:56:24.464Z,61.12
2023-02-20T02:57:20.179Z,61.14
2023-02-20T02:57:54.872Z,61.40
2023-02-20T02:58:28.623Z,61.81
2023-02-20T02:59:00.815Z,61.61
2023-02-20T02:59:37.428Z,61.85
2023-02-20T03:00:12.376Z,61.89
2023-02-20T03:00:50.689Z,61.59
2023-02-20T03:01:26.325Z,61.54
2023-02-20T03:02:03.518Z,61.36
2023-02-20T03:02:42.282Z,61.28
2023-02-20T03:03:24.017Z,61.13
2023-02-20T03:03:58.629Z,61.13
2023-02-20T03:04:32.727Z,61.30
2023-02-20T03:05:10.697Z,61.33
2023-02-20T03:05:48.793Z,61.27
2023-02-20T03:06:29.351Z,61.39
2023-02-20T03:07:13.205Z,61.39
2023-02-20T03:07:49.408Z,61.63
2023-02-20T03:08:37.048Z,61.24
2023-02-20T03:09:15.265Z,61.44
2023-02-20T03:09:52.842Z,61.35
2023-02-20T03:10:34.159Z,61.46
2023-02-20T03:11:09.109Z,61.54
2023-02-20T03:11:42.012Z,61.40
2023-02-20T03:12:17.606Z,61.39
2023-02-20T03:12:51.463Z,61.37
2023-02-20T03:13:40.434Z,61.64
2023-02-20T03:14:32.964Z,61.69
2023-02-20T03:15:23.897Z,61.40
2023-02-20T03:15:56.757Z,61.86
2023-02-20T03:16:39.082Z,61.86
2023-02-20T03:17:18.536Z,61.98
2023-02-20T03:17:56.458Z,61.67
2023-02-20T03:18:37.978Z,61.86
2023-02-20T03:19:13.989Z,61.52
2023-02-20T03:19:48.654Z,61.72
2023-02-20T03:20:25.234Z,61.80
2023-02-20T03:21:01.319Z,61.53
2023-02-20T03:21:37.458Z,61.50
2023-02-20T03:22:21.575Z,61.37
2023-02-20T03:22:58.281Z,61.53
2023-02-20T03:23:37.785Z,61.58
2023-02-20T03:24:15.612Z,61.75
2023-02-20T03:24:58.197Z,61.76
2023-02-20T03:25:39.490Z,61.71
2023-02-20T03:26:22.517Z,61.32
2023-02-20T03:26:57.636Z,61.50
2023-02-20T03:27:39.559Z,61.27
2023-02-20T03:28:18.991Z,61.31
2023-02-20T03:28:58.031Z,61.51
2023-02-20T03:29:34.728Z,61.42
2023-02-20T03:30:12.479Z,61.61
2023-02-20T03:30:52.011Z,61.39
2023-02-20T03:31:29.335Z,61.95
2023-02-20T03:32:22.416Z,61.79
2023-02-20T03:33:19.493Z,61.47
2023-02-20T03:34:14.473Z,61.70
2023-02-20T03:35:04.675Z,61.84
2023-02-20T03:35:55.994Z,61.63
2023-02-20T03:36:48.843Z,61.78
2023-02-20T03:37:43.829Z,61.32
2023-02-20T03:38:33.708Z,61.55
2023-02-20T03:39:25.733Z,61.42
2023-02-20T03:40:17.745Z,61.75
2023-02-20T03:41:07.140Z,61.74
2023-02-20T03:41:57.232Z,61.46
2023-02-20T03:42:47.320Z,61.56
2023-02-20T03:43:33.927Z,61.79
2023-02-20T03:44:08.438Z,61.41
2023-02-20T03:44:42.063Z,61.38
2023-02-20T03:45:18.026Z,61.39
2023-02-20T03:45:51.812Z,61.80
2023-02-20T03:46:26.653Z,61.52
2023-02-20T03:47:04.785Z,61.47
2023-02-20T03:47:40.022Z,61.78
2023-02-20T03:48:18.825Z,61.67
2023-02-20T03:48:59.529Z,61.76
2023-02-20T03:49:36.905Z,61.69
2023-02-20T03:50:28.092Z,61.70
2023-02-20T03:51:14.648Z,61.68
2023-02-20T03:52:03.500Z,61.64
2023-02-20T03:52:43.442Z,61.79
2023-02-20T03:53:16.280Z,61.99
2023-02-20T03:53:48.701Z,61.94
2023-02-20T03:54:23.490Z,61.74
2023-02-20T03:54:55.632Z,61.96
2023-02-20T03:55:27.963Z,61.62
2023-02-20T03:56:08.281Z,61.57
2023-02-20T03:56:43.554Z,61.53
2023-02-20T03:57:23.753Z,61.65
2023-02-20T03:58:03.446Z,61.38
2023-02-20T03:58:42.939Z,61.39
2023-02-20T03:59:21.445Z,61.73
2023-02-20T03:59:56.999Z,61.57
2023-02-20T04:00:35.656Z,61.61
2023-02-20T04:01:10.382Z,61.40
2023-02-20T04:01:44.286Z,61.28
2023-02-20T04:02:23.805Z,61.35
2023-02-20T04:03:00.008Z,61.80
2023-02-20T04:03:39.343Z,61.57
2023-02-20T04:04:19.883Z,61.44
2023-02-20T04:04:55.679Z,61.72
2023-02-20T04:05:32.551Z,61.28
2023-02-20T04:06:11.947Z,61.33
2023-02-20T04:06:47.357Z,61.75
2023-02-20T04:07:24.765Z,61.53
2023-02-20T04:08:07.647Z,61.02
2023-02-20T04:08:45.681Z,61.36
2023-02-20T04:09:21.416Z,60.91
2023-02-20T04:09:59.604Z,61.35
2023-02-20T04:10:45.208Z,61.62
2023-02-20T04:11:22.988Z,61.46
2023-02-20T04:12:02.473Z,61.75
2023-02-20T04:12:39.036Z,61.74
2023-02-20T04:13:14.937Z,61.56
2023-02-20T04:13:55.718Z,61.09
2023-02-20T04:14:31.441Z,61.27
2023-02-20T04:15:07.314Z,61.54
2023-02-20T04:15:44.644Z,61.53
2023-02-20T04:16:17.476Z,61.61
2023-02-20T04:16:55.218Z,61.53
2023-02-20T04:17:33.450Z,61.65
2023-02-20T04:18:11.336Z,61.71
2023-02-20T04:18:45.462Z,61.66
2023-02-20T04:19:21.339Z,61.46
2023-02-20T04:19:54.383Z,61.41
2023-02-20T04:20:26.859Z,61.62
2023-02-20T04:21:21.585Z,61.28
2023-02-20T04:21:57.134Z,61.52
2023-02-20T04:22:36.782Z,61.32
2023-02-20T04:23:18.504Z,61.68
2023-02-20T04:24:03.077Z,61.71
2023-02-20T04:24:41.321Z,61.57
2023-02-20T04:25:21.557Z,61.50
2023-02-20T04:25:59.174Z,61.81
2023-02-20T04:26:32.652Z,61.79
2023-02-20T04:27:07.535Z,62.14
2023-02-20T04:27:44.256Z,61.80
2023-02-20T04:28:17.767Z,61.76
2023-02-20T04:29:02.069Z,61.92
2023-02-20T04:29:35.026Z,61.77
2023-02-20T04:30:08.688Z,61.53
2023-02-20T04:30:43.974Z,61.65
2023-02-20T04:31:18.728Z,61.54
2023-02-20T04:31:52.642Z,61.34
2023-02-20T04:32:27.539Z,61.51
2023-02-20T04:32:59.991Z,61.42
2023-02-20T04:33:32.911Z,61.49
2023-02-20T04:34:12.054Z,61.45
2023-02-20T04:34:44.314Z,61.36
2023-02-20T04:35:19.223Z,61.20
2023-02-20T04:35:58.552Z,61.15
2023-02-20T04:36:31.555Z,61.58
2023-02-20T04:37:11.556Z,61.78
2023-02-20T04:37:43.762Z,61.55
2023-02-20T04:38:18.562Z,61.26
2023-02-20T04:38:53.366Z,61.32
2023-02-20T04:39:29.998Z,61.26
2023-02-20T04:40:02.160Z,61.75
2023-02-20T04:40:37.040Z,61.55
2023-02-20T04:41:09.161Z,61.32
2023-02-20T04:41:43.822Z,61.54
2023-02-20T04:42:16.381Z,61.13
2023-02-20T04:42:48.909Z,61.17
2023-02-20T04:43:23.865Z,61.08
2023-02-20T04:44:11.657Z,61.25
2023-02-20T04:44:43.803Z,61.50
2023-02-20T04:45:20.633Z,61.15
2023-02-20T04:45:52.792Z,61.50
2023-02-20T04:46:25.093Z,60.95
2023-02-20T04:46:58.003Z,61.12
2023-02-20T04:47:32.708Z,61.18
2023-02-20T04:48:05.625Z,61.26
2023-02-20T04:48:37.755Z,61.14
2023-02-20T04:49:09.878Z,61.07
2023-02-20T04:49:46.118Z,61.19
2023-02-20T04:50:26.016Z,61.44
2023-02-20T04:50:58.422Z,61.07
2023-02-20T04:51:33.270Z,61.12
2023-02-20T04:52:05.673Z,61.27
2023-02-20T04:52:38.710Z,61.39
2023-02-20T04:53:13.388Z,61.37
2023-02-20T04:53:48.162Z,61.06
2023-02-20T04:54:20.278Z,60.93
2023-02-20T04:54:55.158Z,60.51
2023-02-20T04:55:28.892Z,60.91
2023-02-20T04:56:05.070Z,61.05
2023-02-20T04:56:41.645Z,61.03
2023-02-20T04:57:14.399Z,60.54
2023-02-20T04:57:49.197Z,60.59
2023-02-20T04:58:21.363Z,60.60
2023-02-20T04:58:59.897Z,60.88
2023-02-20T04:59:35.112Z,60.73
2023-02-20T05:00:09.228Z,61.26
2023-02-20T05:00:41.319Z,61.06
2023-02-20T05:01:16.240Z,61.21
2023-02-20T05:01:49.616Z,60.69
2023-02-20T05:02:21.874Z,60.76
2023-02-20T05:02:56.925Z,61.05
2023-02-20T05:03:29.023Z,60.77
2023-02-20T05:04:01.151Z,60.82
2023-02-20T05:04:36.183Z,61.02
2023-02-20T05:05:20.839Z,60.67
2023-02-20T05:05:55.563Z,60.60
2023-02-20T05:06:27.653Z,61.03
2023-02-20T05:06:59.737Z,60.91
2023-02-20T05:07:34.531Z,61.21
2023-02-20T05:08:08.425Z,60.64
2023-02-20T05:08:40.541Z,60.85
2023-02-20T05:09:18.212Z,60.57
2023-02-20T05:09:50.398Z,60.74
2023-02-20T05:10:23.656Z,60.45
2023-02-20T05:10:58.454Z,60.80
2023-02-20T05:11:30.525Z,60.48
2023-02-20T05:12:02.631Z,60.63
2023-02-20T05:12:37.289Z,61.03
2023-02-20T05:13:09.425Z,61.09
2023-02-20T05:13:44.188Z,60.79
2023-02-20T05:14:16.851Z,60.99
2023-02-20T05:14:48.918Z,60.56
2023-02-20T05:15:23.767Z,60.95
2023-02-20T05:15:55.958Z,60.99
2023-02-20T05:16:28.111Z,61.04
2023-02-20T05:17:02.772Z,60.89
2023-02-20T05:17:35.021Z,60.78
2023-02-20T05:18:07.125Z,61.28
2023-02-20T05:18:42.076Z,60.74
2023-02-20T05:19:14.976Z,60.74
2023-02-20T05:19:47.606Z,60.83
2023-02-20T05:20:42.917Z,60.80
2023-02-20T05:21:30.808Z,60.92
2023-02-20T05:22:18.065Z,61.16
2023-02-20T05:22:50.141Z,60.86
2023-02-20T05:23:22.236Z,61.10
2023-02-20T05:23:54.331Z,60.89
2023-02-20T05:24:32.235Z,60.89
2023-02-20T05:25:05.224Z,60.90
2023-02-20T05:25:40.027Z,60.97
2023-02-20T05:26:13.615Z,61.04
2023-02-20T05:26:45.899Z,61.22
2023-02-20T05:27:23.941Z,60.92
2023-02-20T05:27:56.147Z,61.01
2023-02-20T05:28:28.240Z,61.10
2023-02-20T05:29:00.377Z,61.33
2023-02-20T05:29:35.022Z,60.88
2023-02-20T05:30:09.075Z,61.07
2023-02-20T05:30:41.286Z,60.81
2023-02-20T05:31:17.796Z,60.81
2023-02-20T05:31:50.482Z,61.06
2023-02-20T05:32:25.731Z,61.37
2023-02-20T05:33:00.456Z,61.34
2023-02-20T05:33:33.405Z,61.43
2023-02-20T05:34:05.583Z,61.18
2023-02-20T05:34:40.245Z,61.16
2023-02-20T05:35:12.328Z,61.19
2023-02-20T05:35:44.397Z,61.38
2023-02-20T05:36:19.272Z,61.17
2023-02-20T05:36:51.743Z,61.19
2023-02-20T05:37:26.181Z,61.38
2023-02-20T05:38:00.880Z,60.96
2023-02-20T05:38:32.967Z,61.68
2023-02-20T05:39:05.888Z,61.58
2023-02-20T05:39:43.258Z,61.60
2023-02-20T05:40:15.525Z,61.70
2023-02-20T05:40:47.604Z,61.14
2023-02-20T05:41:22.657Z,61.33
2023-02-20T05:41:54.912Z,61.58
2023-02-20T05:42:29.640Z,61.48
2023-02-20T05:43:01.797Z,61.37
2023-02-20T05:43:33.929Z,61.29
2023-02-20T05:44:08.644Z,60.92
2023-02-20T05:44:40.831Z,61.44
2023-02-20T05:45:17.055Z,61.31
2023-02-20T05:45:49.167Z,61.26
2023-02-20T05:46:21.283Z,61.54
2023-02-20T05:46:56.836Z,61.32
2023-02-20T05:47:29.159Z,61.10
2023-02-20T05:48:01.240Z,61.25
2023-02-20T05:48:36.098Z,61.57
2023-02-20T05:49:08.428Z,61.01
2023-02-20T05:49:40.482Z,61.31
2023-02-20T05:50:15.231Z,61.15
2023-02-20T05:50:47.293Z,61.24
2023-02-20T05:51:28.144Z,61.36
2023-02-20T05:52:02.835Z,61.17
2023-02-20T05:52:35.006Z,61.59
2023-02-20T05:53:07.696Z,61.33
2023-02-20T05:53:42.346Z,61.45
2023-02-20T05:54:14.488Z,61.33
2023-02-20T05:54:49.240Z,61.41
2023-02-20T05:55:23.890Z,61.47
2023-02-20T05:55:56.373Z,61.04
2023-02-20T05:56:30.238Z,61.38
2023-02-20T05:57:04.924Z,61.39
2023-02-20T05:57:37.032Z,61.43
2023-02-20T05:58:09.169Z,61.51
2023-02-20T05:58:45.466Z,61.24
2023-02-20T05:59:19.820Z,61.38
2023-02-20T05:59:54.516Z,61.24
2023-02-20T06:00:26.722Z,61.20
2023-02-20T06:00:58.793Z,61.64
2023-02-20T06:01:34.826Z,61.60
2023-02-20T06:02:06.974Z,61.42
2023-02-20T06:02:41.642Z,61.90
2023-02-20T06:03:14.992Z,61.70
2023-02-20T06:03:47.238Z,61.75
2023-02-20T06:04:22.214Z,61.75
2023-02-20T06:04:55.678Z,61.75
2023-02-20T06:05:28.403Z,61.40
2023-02-20T06:06:03.089Z,61.63
2023-02-20T06:06:36.196Z,61.52
2023-02-20T06:07:10.453Z,61.26
2023-02-20T06:07:46.383Z,61.61
2023-02-20T06:08:18.468Z,61.83
2023-02-20T06:08:50.949Z,61.84
2023-02-20T06:09:25.672Z,61.67
2023-02-20T06:10:00.516Z,61.71
2023-02-20T06:10:32.878Z,61.49
2023-02-20T06:11:07.703Z,61.66
2023-02-20T06:11:40.324Z,61.51
2023-02-20T06:12:15.433Z,61.25
2023-02-20T06:12:47.596Z,61.42
2023-02-20T06:13:19.707Z,61.40
2023-02-20T06:13:54.476Z,61.36
2023-02-20T06:14:27.512Z,61.06
2023-02-20T06:14:59.614Z,61.33
2023-02-20T06:15:34.383Z,61.22
2023-02-20T06:16:07.243Z,61.31
2023-02-20T06:16:39.358Z,61.11
2023-02-20T06:17:14.024Z,61.38
2023-02-20T06:17:46.141Z,61.23
2023-02-20T06:18:18.276Z,61.03
2023-02-20T06:18:50.607Z,61.33
2023-02-20T06:19:27.227Z,61.30
2023-02-20T06:19:59.432Z,60.95
2023-02-20T06:20:31.523Z,60.99
2023-02-20T06:21:06.553Z,61.31
2023-02-20T06:21:40.327Z,61.07
2023-02-20T06:22:12.416Z,61.21
2023-02-20T06:22:47.161Z,61.14
2023-02-20T06:23:19.243Z,61.36
2023-02-20T06:23:52.494Z,61.11
2023-02-20T06:24:27.472Z,61.22
2023-02-20T06:25:02.171Z,61.10
2023-02-20T06:25:34.251Z,61.11
2023-02-20T06:26:10.001Z,61.29
2023-02-20T06:26:42.817Z,61.71
2023-02-20T06:27:18.542Z,61.06
2023-02-20T06:27:50.617Z,61.07
2023-02-20T06:28:22.678Z,61.05
2023-02-20T06:28:58.300Z,61.14
2023-02-20T06:29:30.587Z,61.03
2023-02-20T06:30:03.525Z,61.13
2023-02-20T06:30:38.354Z,60.73
2023-02-20T06:31:11.852Z,61.23
2023-02-20T06:31:44.089Z,61.14
2023-02-20T06:32:19.349Z,61.15
2023-02-20T06:32:51.457Z,61.39
2023-02-20T06:33:23.538Z,61.15
2023-02-20T06:33:58.339Z,61.36
2023-02-20T06:34:33.275Z,61.04
2023-02-20T06:35:09.398Z,61.02
2023-02-20T06:35:41.471Z,61.43
2023-02-20T06:36:20.794Z,60.95
2023-02-20T06:36:55.504Z,61.24
2023-02-20T06:37:27.634Z,61.43
2023-02-20T06:38:01.210Z,61.37
2023-02-20T06:38:35.893Z,61.09
2023-02-20T06:39:10.116Z,61.29
2023-02-20T06:39:45.874Z,60.96
2023-02-20T06:40:23.348Z,61.14
2023-02-20T06:40:55.610Z,61.01
2023-02-20T06:41:27.692Z,60.86
2023-02-20T06:42:02.333Z,60.85
2023-02-20T06:42:34.415Z,60.97
2023-02-20T06:43:06.601Z,60.74
2023-02-20T06:43:41.441Z,60.74
2023-02-20T06:44:13.554Z,60.97
2023-02-20T06:44:48.295Z,60.67
2023-02-20T06:45:20.466Z,60.75
2023-02-20T06:45:52.586Z,60.74
2023-02-20T06:46:25.212Z,60.64
2023-02-20T06:46:59.949Z,60.66
2023-02-20T06:47:32.543Z,60.60
2023-02-20T06:48:05.505Z,60.85
2023-02-20T06:48:46.776Z,60.84
2023-02-20T06:49:19.097Z,60.90
2023-02-20T06:49:51.386Z,60.87
2023-02-20T06:50:26.573Z,60.59
2023-02-20T06:50:58.721Z,60.27
2023-02-20T06:51:35.421Z,60.40
2023-02-20T06:52:08.077Z,60.14
2023-02-20T06:52:40.366Z,60.22
2023-02-20T06:53:15.095Z,60.18
2023-02-20T06:53:47.827Z,60.31
2023-02-20T06:54:22.045Z,60.21
2023-02-20T06:54:56.903Z,60.31
2023-02-20T06:55:32.794Z,60.56
2023-02-20T06:56:07.515Z,60.68
2023-02-20T06:56:42.244Z,60.51
2023-02-20T06:57:15.232Z,60.47
2023-02-20T06:57:47.657Z,60.41
2023-02-20T06:58:22.309Z,60.25
2023-02-20T06:58:55.033Z,60.27
2023-02-20T06:59:27.178Z,60.15
2023-02-20T07:00:02.006Z,60.09
2023-02-20T07:00:34.689Z,60.62
2023-02-20T07:01:06.884Z,60.30
2023-02-20T07:01:43.498Z,60.28
2023-02-20T07:02:16.870Z,60.58
2023-02-20T07:02:51.628Z,59.99
2023-02-20T07:03:23.816Z,59.91
2023-02-20T07:03:57.630Z,59.83
2023-02-20T07:04:32.345Z,60.11
2023-02-20T07:05:05.767Z,60.03
2023-02-20T07:05:40.735Z,59.92
2023-02-20T07:06:13.363Z,60.29
2023-02-20T07:06:45.767Z,60.11
2023-02-20T07:07:20.565Z,59.89
2023-02-20T07:07:52.715Z,60.01
2023-02-20T07:08:24.817Z,59.86
2023-02-20T07:08:59.682Z,60.32
2023-02-20T07:09:31.889Z,60.32
2023-02-20T07:10:06.646Z,60.55
2023-02-20T07:10:44.304Z,59.96
2023-02-20T07:11:18.140Z,59.87
2023-02-20T07:11:55.074Z,59.42
2023-02-20T07:12:29.867Z,59.55
2023-02-20T07:13:06.288Z,59.73
2023-02-20T07:13:41.096Z,59.39
2023-02-20T07:14:14.191Z,59.45
2023-02-20T07:14:48.951Z,59.42
2023-02-20T07:15:21.593Z,60.08
2023-02-20T07:15:53.836Z,59.58
2023-02-20T07:16:28.773Z,59.71
2023-02-20T07:17:00.872Z,59.45
2023-02-20T07:17:35.949Z,59.92
2023-02-20T07:18:08.150Z,59.58
2023-02-20T07:18:40.313Z,59.75
2023-02-20T07:19:15.306Z,59.27
2023-02-20T07:19:47.411Z,59.32
2023-02-20T07:20:22.253Z,58.95
2023-02-20T07:20:55.273Z,59.03
2023-02-20T07:21:30.640Z,59.04
2023-02-20T07:22:02.771Z,59.35
2023-02-20T07:22:34.913Z,59.35
2023-02-20T07:23:10.002Z,59.48
2023-02-20T07:23:42.375Z,59.43
2023-02-20T07:24:17.227Z,59.38
2023-02-20T07:24:51.736Z,59.13
2023-02-20T07:25:23.912Z,58.82
2023-02-20T07:26:01.419Z,59.13
2023-02-20T07:26:33.680Z,59.18
2023-02-20T07:27:08.374Z,59.14
2023-02-20T07:27:40.508Z,59.00
2023-02-20T07:28:15.181Z,59.01
2023-02-20T07:28:47.491Z,59.05
2023-02-20T07:29:19.596Z,58.88
2023-02-20T07:29:54.596Z,58.76
2023-02-20T07:30:27.213Z,58.65
2023-02-20T07:30:59.602Z,58.36
2023-02-20T07:31:34.542Z,58.28
2023-02-20T07:32:06.719Z,58.35
2023-02-20T07:32:38.893Z,58.51
2023-02-20T07:33:13.758Z,58.70
2023-02-20T07:33:46.371Z,58.17
2023-02-20T07:34:21.237Z,58.34
2023-02-20T07:35:03.673Z,58.24
2023-02-20T07:35:39.797Z,58.52
2023-02-20T07:36:14.533Z,58.51
2023-02-20T07:36:49.442Z,58.24
2023-02-20T07:37:21.581Z,58.11
2023-02-20T07:37:53.671Z,57.99
2023-02-20T07:38:28.508Z,58.23
2023-02-20T07:39:02.216Z,58.03
2023-02-20T07:39:34.302Z,57.98
2023-02-20T07:40:10.285Z,57.79
2023-02-20T07:40:42.500Z,57.81
2023-02-20T07:41:17.496Z,57.90
2023-02-20T07:41:53.861Z,57.73
2023-02-20T07:42:44.414Z,57.98
2023-02-20T07:43:29.015Z,57.63
2023-02-20T07:44:01.079Z,57.39
2023-02-20T07:44:33.328Z,57.58
2023-02-20T07:45:08.431Z,57.72
2023-02-20T07:45:40.602Z,57.43